createdAt,value
2018-12-14T00:00:31.402Z,22.05
2018-12-14T00:01:41.099Z,22.02
2018-12-14T00:02:50.384Z,22.07
2018-12-14T00:03:59.800Z,22
2018-12-14T00:05:09.010Z,21.98
2018-12-14T00:06:18.848Z,22.02
2018-12-14T00:07:28.286Z,21.98
2018-12-14T00:08:37.972Z,21.96
2018-12-14T00:09:47.460Z,21.99
2018-12-14T00:10:56.889Z,21.94
2018-12-14T00:12:08.142Z,22.06
2018-12-14T00:13:17.380Z,21.99
2018-12-14T00:14:26.953Z,22
2018-12-14T00:15:36.122Z,22.03
2018-12-14T00:16:45.339Z,21.96
2018-12-14T00:17:55.108Z,21.98
2018-12-14T00:19:04.327Z,21.99
2018-12-14T00:20:13.438Z,21.96
2018-12-14T00:21:22.644Z,21.99
2018-12-14T00:22:31.611Z,21.86
2018-12-14T00:23:41.096Z,21.86
2018-12-14T00:24:50.322Z,21.91
2018-12-14T00:25:59.651Z,21.9
2018-12-14T00:27:09.497Z,21.9
2018-12-14T00:28:18.916Z,21.98
2018-12-14T00:29:28.611Z,21.92
2018-12-14T00:30:38.413Z,21.88
2018-12-14T00:31:47.549Z,21.82
2018-12-14T00:32:57.006Z,21.92
2018-12-14T00:34:06.713Z,21.8
2018-12-14T00:35:16.383Z,21.82
2018-12-14T00:36:25.354Z,21.74
2018-12-14T00:37:35.318Z,21.82
2018-12-14T00:38:45.078Z,21.8
2018-12-14T00:39:54.891Z,21.83
2018-12-14T00:41:03.991Z,21.75
2018-12-14T00:42:14.247Z,21.75
2018-12-14T00:43:24.078Z,21.72
2018-12-14T00:44:33.195Z,21.8
2018-12-14T00:45:42.183Z,21.77
2018-12-14T00:46:51.530Z,21.75
2018-12-14T00:48:01.192Z,21.75
2018-12-14T00:49:10.359Z,21.72
2018-12-14T00:50:19.913Z,21.68
2018-12-14T00:51:28.811Z,21.74
2018-12-14T00:52:38.414Z,21.72
2018-12-14T00:53:47.541Z,21.67
2018-12-14T00:54:56.931Z,21.74
2018-12-14T00:56:06.817Z,21.69
2018-12-14T00:57:15.930Z,21.71
2018-12-14T00:58:26.010Z,21.64
2018-12-14T00:59:35.167Z,21.67
2018-12-14T01:00:44.149Z,21.65
2018-12-14T01:01:53.301Z,21.64
2018-12-14T01:03:03.286Z,21.71
2018-12-14T01:04:12.715Z,21.65
2018-12-14T01:05:21.830Z,21.65
2018-12-14T01:06:31.457Z,21.64
2018-12-14T01:07:41.507Z,21.68
2018-12-14T01:08:50.447Z,21.58
2018-12-14T01:09:59.261Z,21.54
2018-12-14T01:11:08.987Z,21.54
2018-12-14T01:12:18.264Z,21.53
2018-12-14T01:13:27.803Z,21.62
2018-12-14T01:14:37.056Z,21.58
2018-12-14T01:15:46.528Z,21.54
2018-12-14T01:16:55.911Z,21.54
2018-12-14T01:18:05.121Z,21.54
2018-12-14T01:19:14.712Z,21.53
2018-12-14T01:20:23.888Z,21.5
2018-12-14T01:21:33.785Z,21.58
2018-12-14T01:22:43.218Z,21.46
2018-12-14T01:23:52.946Z,21.43
2018-12-14T01:25:02.782Z,21.47
2018-12-14T01:26:11.894Z,21.56
2018-12-14T01:27:20.967Z,21.49
2018-12-14T01:28:30.650Z,21.53
2018-12-14T01:29:39.779Z,21.5
2018-12-14T01:30:49.041Z,21.5
2018-12-14T01:31:58.371Z,21.43
2018-12-14T01:33:07.994Z,21.49
2018-12-14T01:34:17.937Z,21.49
2018-12-14T01:35:27.033Z,21.4
2018-12-14T01:36:36.612Z,21.47
2018-12-14T01:37:46.319Z,21.44
2018-12-14T01:38:55.928Z,21.38
2018-12-14T01:40:05.360Z,21.42
2018-12-14T01:41:14.871Z,21.44
2018-12-14T01:42:24.034Z,21.4
2018-12-14T01:43:33.598Z,21.43
2018-12-14T01:44:42.893Z,21.43
2018-12-14T01:45:52.667Z,21.4
2018-12-14T01:47:02.216Z,21.46
2018-12-14T01:48:11.832Z,21.43
2018-12-14T01:49:21.122Z,21.35
2018-12-14T01:50:30.635Z,21.37
2018-12-14T01:51:40.343Z,21.35
2018-12-14T01:52:50.374Z,21.35
2018-12-14T01:53:59.851Z,21.38
2018-12-14T01:55:09.793Z,21.37
2018-12-14T01:56:19.185Z,21.37
2018-12-14T01:57:29.453Z,21.29
2018-12-14T01:58:38.756Z,21.31
2018-12-14T01:59:48.402Z,21.35
2018-12-14T02:00:58.392Z,21.32
2018-12-14T02:02:07.828Z,21.28
2018-12-14T02:03:17.495Z,21.28
2018-12-14T02:04:26.646Z,21.25
2018-12-14T02:05:36.150Z,21.28
2018-12-14T02:06:45.907Z,21.29
2018-12-14T02:07:55.452Z,21.28
2018-12-14T02:09:04.975Z,21.28
2018-12-14T02:10:14.993Z,21.27
2018-12-14T02:11:24.701Z,21.24
2018-12-14T02:12:34.125Z,21.22
2018-12-14T02:13:43.970Z,21.24
2018-12-14T02:14:53.532Z,21.29
2018-12-14T02:16:02.771Z,21.25
2018-12-14T02:17:12.702Z,21.25
2018-12-14T02:18:22.086Z,21.25
2018-12-14T02:19:31.495Z,21.24
2018-12-14T02:20:40.907Z,21.24
2018-12-14T02:22:15.822Z,21.28
2018-12-14T02:23:25.657Z,21.22
2018-12-14T02:24:35.392Z,21.28
2018-12-14T02:25:45.297Z,21.22
2018-12-14T02:26:54.773Z,21.27
2018-12-14T02:28:04.483Z,21.22
2018-12-14T02:29:13.628Z,21.22
2018-12-14T02:30:22.940Z,21.25
2018-12-14T02:31:32.907Z,21.19
2018-12-14T02:32:42.361Z,21.17
2018-12-14T02:33:51.909Z,21.22
2018-12-14T02:35:02.187Z,21.12
2018-12-14T02:36:11.626Z,21.12
2018-12-14T02:37:20.981Z,21.19
2018-12-14T02:38:30.699Z,21.16
2018-12-14T02:39:39.920Z,21.16
2018-12-14T02:40:49.603Z,21.14
2018-12-14T02:41:59.317Z,21.16
2018-12-14T02:43:08.587Z,21.14
2018-12-14T02:44:17.951Z,21.13
2018-12-14T02:45:27.549Z,21.07
2018-12-14T02:46:36.771Z,21.14
2018-12-14T02:47:46.474Z,21.09
2018-12-14T02:48:56.054Z,21.1
2018-12-14T02:50:04.905Z,21.21
2018-12-14T02:51:14.586Z,21.12
2018-12-14T02:52:24.308Z,21.13
2018-12-14T02:53:33.708Z,21.14
2018-12-14T02:54:42.745Z,21.14
2018-12-14T02:55:52.601Z,21.07
2018-12-14T02:57:02.506Z,21.04
2018-12-14T02:58:11.563Z,21.13
2018-12-14T02:59:20.778Z,21.09
2018-12-14T03:00:29.900Z,21.09
2018-12-14T03:01:39.336Z,21.06
2018-12-14T03:02:49.150Z,21.04
2018-12-14T03:03:59.104Z,21.1
2018-12-14T03:05:09.257Z,20.99
2018-12-14T03:06:18.887Z,21.06
2018-12-14T03:07:28.053Z,21.06
2018-12-14T03:08:37.388Z,21.09
2018-12-14T03:09:46.761Z,20.95
2018-12-14T03:10:55.893Z,21.06
2018-12-14T03:12:05.218Z,20.99
2018-12-14T03:13:14.933Z,21.12
2018-12-14T03:14:24.229Z,21.06
2018-12-14T03:15:34.153Z,21.06
2018-12-14T03:16:43.748Z,21.01
2018-12-14T03:17:53.261Z,20.99
2018-12-14T03:19:02.873Z,20.99
2018-12-14T03:20:12.584Z,20.99
2018-12-14T03:21:21.656Z,21.03
2018-12-14T03:22:31.287Z,20.97
2018-12-14T03:23:41.014Z,20.99
2018-12-14T03:24:50.962Z,20.95
2018-12-14T03:26:00.743Z,20.95
2018-12-14T03:27:10.212Z,20.95
2018-12-14T03:28:19.351Z,20.98
2018-12-14T03:29:28.718Z,20.97
2018-12-14T03:30:38.119Z,20.98
2018-12-14T03:31:48.035Z,20.95
2018-12-14T03:32:58.172Z,20.92
2018-12-14T03:34:07.770Z,20.99
2018-12-14T03:35:17.163Z,20.99
2018-12-14T03:36:27.247Z,20.98
2018-12-14T03:37:36.558Z,20.99
2018-12-14T03:38:45.980Z,21.01
2018-12-14T03:39:55.351Z,20.98
2018-12-14T03:41:04.795Z,20.98
2018-12-14T03:42:14.518Z,20.98
2018-12-14T03:43:23.916Z,20.89
2018-12-14T03:44:32.718Z,20.98
2018-12-14T03:45:42.797Z,20.95
2018-12-14T03:46:51.988Z,20.98
2018-12-14T03:48:01.376Z,20.98
2018-12-14T03:49:11.501Z,20.97
2018-12-14T03:50:21.139Z,20.97
2018-12-14T03:51:31.020Z,20.98
2018-12-14T03:52:40.865Z,20.94
2018-12-14T03:53:50.114Z,20.91
2018-12-14T03:54:59.507Z,20.89
2018-12-14T03:56:08.878Z,20.89
2018-12-14T03:57:18.773Z,20.89
2018-12-14T03:58:28.088Z,20.89
2018-12-14T03:59:37.623Z,20.84
2018-12-14T04:00:47.404Z,20.8
2018-12-14T04:01:57.165Z,20.82
2018-12-14T04:03:07.134Z,20.87
2018-12-14T04:04:16.681Z,20.85
2018-12-14T04:05:26.122Z,20.85
2018-12-14T04:06:35.233Z,20.88
2018-12-14T04:07:44.026Z,20.87
2018-12-14T04:08:52.817Z,20.87
2018-12-14T04:10:02.301Z,20.88
2018-12-14T04:11:12.241Z,20.89
2018-12-14T04:12:21.127Z,20.88
2018-12-14T04:13:30.446Z,20.84
2018-12-14T04:14:39.870Z,20.82
2018-12-14T04:15:49.387Z,20.84
2018-12-14T04:16:58.759Z,20.77
2018-12-14T04:18:08.195Z,20.77
2018-12-14T04:19:17.498Z,20.8
2018-12-14T04:20:26.775Z,20.76
2018-12-14T04:21:36.211Z,20.84
2018-12-14T04:22:45.735Z,20.77
2018-12-14T04:23:55.930Z,20.79
2018-12-14T04:25:05.130Z,20.74
2018-12-14T04:26:15.023Z,20.82
2018-12-14T04:27:24.443Z,20.74
2018-12-14T04:28:34.138Z,20.87
2018-12-14T04:29:43.890Z,20.79
2018-12-14T04:30:52.886Z,20.79
2018-12-14T04:32:02.074Z,20.8
2018-12-14T04:33:11.669Z,20.79
2018-12-14T04:34:21.244Z,20.85
2018-12-14T04:35:31.188Z,20.84
2018-12-14T04:36:40.548Z,20.82
2018-12-14T04:37:50.445Z,20.79
2018-12-14T04:38:59.368Z,20.8
2018-12-14T04:40:08.486Z,20.84
2018-12-14T04:41:18.287Z,20.79
2018-12-14T04:42:28.036Z,20.76
2018-12-14T04:43:37.626Z,20.74
2018-12-14T04:44:46.797Z,20.77
2018-12-14T04:45:56.172Z,20.79
2018-12-14T04:47:05.628Z,20.73
2018-12-14T04:48:14.998Z,20.72
2018-12-14T04:49:24.615Z,20.77
2018-12-14T04:50:34.222Z,20.76
2018-12-14T04:51:43.339Z,20.8
2018-12-14T04:52:52.875Z,20.67
2018-12-14T04:54:02.792Z,20.67
2018-12-14T04:55:11.856Z,20.64
2018-12-14T04:56:21.221Z,20.69
2018-12-14T04:57:30.411Z,20.84
2018-12-14T04:58:40.045Z,20.69
2018-12-14T04:59:49.674Z,20.66
2018-12-14T05:00:59.304Z,20.76
2018-12-14T05:02:09.196Z,20.67
2018-12-14T05:03:18.311Z,20.7
2018-12-14T05:04:27.145Z,20.69
2018-12-14T05:05:36.605Z,20.72
2018-12-14T05:06:46.294Z,20.72
2018-12-14T05:07:55.639Z,20.67
2018-12-14T05:09:05.097Z,20.66
2018-12-14T05:10:14.205Z,20.66
2018-12-14T05:11:23.530Z,20.79
2018-12-14T05:12:32.928Z,20.66
2018-12-14T05:13:42.645Z,20.62
2018-12-14T05:14:52.541Z,20.74
2018-12-14T05:16:01.916Z,20.64
2018-12-14T05:17:11.605Z,20.74
2018-12-14T05:18:20.440Z,20.61
2018-12-14T05:19:29.792Z,20.67
2018-12-14T05:20:38.911Z,20.69
2018-12-14T05:21:48.298Z,20.7
2018-12-14T05:22:57.881Z,20.67
2018-12-14T05:24:07.528Z,20.69
2018-12-14T05:25:17.246Z,20.64
2018-12-14T05:26:26.903Z,20.69
2018-12-14T05:27:36.151Z,20.67
2018-12-14T05:28:45.556Z,20.67
2018-12-14T05:29:54.982Z,20.72
2018-12-14T05:31:04.349Z,20.7
2018-12-14T05:32:13.997Z,20.72
2018-12-14T05:33:23.312Z,20.74
2018-12-14T05:34:32.968Z,20.66
2018-12-14T05:35:42.358Z,20.77
2018-12-14T05:36:52.164Z,20.67
2018-12-14T05:38:02.068Z,20.7
2018-12-14T05:39:11.714Z,20.69
2018-12-14T05:40:21.587Z,20.7
2018-12-14T05:41:31.327Z,20.67
2018-12-14T05:42:40.742Z,20.69
2018-12-14T05:43:50.324Z,20.72
2018-12-14T05:44:59.693Z,20.76
2018-12-14T05:46:09.696Z,20.69
2018-12-14T05:47:18.751Z,20.73
2018-12-14T05:48:27.839Z,20.69
2018-12-14T05:49:37.278Z,20.67
2018-12-14T05:50:47.165Z,20.7
2018-12-14T05:51:57.558Z,20.64
2018-12-14T05:53:07.143Z,20.72
2018-12-14T05:54:16.907Z,20.7
2018-12-14T05:55:26.002Z,20.69
2018-12-14T05:56:35.431Z,20.67
2018-12-14T05:57:44.246Z,20.67
2018-12-14T05:58:53.710Z,20.69
2018-12-14T06:00:03.447Z,20.67
2018-12-14T06:01:12.323Z,20.69
2018-12-14T06:02:21.922Z,20.69
2018-12-14T06:03:31.334Z,20.67
2018-12-14T06:04:40.449Z,20.69
2018-12-14T06:05:49.790Z,20.69
2018-12-14T06:06:59.472Z,20.7
2018-12-14T06:08:08.856Z,20.67
2018-12-14T06:09:19.529Z,20.72
2018-12-14T06:10:28.666Z,20.69
2018-12-14T06:11:37.925Z,20.73
2018-12-14T06:12:47.303Z,20.74
2018-12-14T06:13:57.118Z,20.69
2018-12-14T06:15:06.194Z,20.64
2018-12-14T06:16:16.314Z,20.74
2018-12-14T06:17:25.720Z,20.66
2018-12-14T06:18:35.147Z,20.66
2018-12-14T06:19:44.350Z,20.72
2018-12-14T06:20:53.972Z,20.72
2018-12-14T06:22:03.547Z,20.76
2018-12-14T06:23:13.346Z,20.72
2018-12-14T06:24:22.428Z,20.67
2018-12-14T06:25:31.812Z,20.67
2018-12-14T06:26:41.406Z,20.73
2018-12-14T06:27:50.718Z,20.69
2018-12-14T06:29:00.051Z,20.72
2018-12-14T06:30:09.818Z,20.66
2018-12-14T06:31:18.953Z,20.59
2018-12-14T06:32:28.325Z,20.67
2018-12-14T06:33:38.043Z,20.66
2018-12-14T06:34:47.133Z,20.58
2018-12-14T06:35:56.436Z,20.64
2018-12-14T06:37:05.891Z,20.66
2018-12-14T06:38:15.035Z,20.62
2018-12-14T06:39:24.384Z,20.62
2018-12-14T06:40:33.520Z,20.66
2018-12-14T06:41:42.830Z,20.61
2018-12-14T06:42:51.756Z,20.54
2018-12-14T06:44:01.592Z,20.57
2018-12-14T06:45:11.039Z,20.58
2018-12-14T06:46:20.371Z,20.5
2018-12-14T06:47:29.506Z,20.54
2018-12-14T06:48:38.889Z,20.47
2018-12-14T06:49:48.271Z,20.5
2018-12-14T06:50:57.340Z,20.54
2018-12-14T06:52:06.617Z,20.54
2018-12-14T06:53:16.021Z,20.47
2018-12-14T06:54:25.703Z,20.5
2018-12-14T06:55:34.827Z,20.54
2018-12-14T06:56:44.492Z,20.51
2018-12-14T06:57:54.155Z,20.43
2018-12-14T06:59:03.419Z,20.47
2018-12-14T07:00:12.896Z,20.42
2018-12-14T07:01:21.997Z,20.38
2018-12-14T07:02:31.656Z,20.41
2018-12-14T07:03:41.055Z,20.35
2018-12-14T07:04:50.714Z,20.35
2018-12-14T07:06:00.558Z,20.38
2018-12-14T07:07:09.481Z,20.33
2018-12-14T07:08:18.880Z,20.42
2018-12-14T07:09:27.776Z,20.36
2018-12-14T07:10:36.864Z,20.38
2018-12-14T07:11:46.473Z,20.48
2018-12-14T07:12:55.862Z,20.55
2018-12-14T07:14:06.126Z,20.54
2018-12-14T07:15:15.568Z,20.67
2018-12-14T07:16:24.751Z,20.74
2018-12-14T07:17:34.692Z,20.72
2018-12-14T07:18:44.124Z,20.88
2018-12-14T07:19:54.060Z,20.91
2018-12-14T07:21:03.466Z,21.03
2018-12-14T07:22:13.168Z,21.01
2018-12-14T07:23:22.650Z,21.25
2018-12-14T07:24:31.724Z,21.22
2018-12-14T07:25:40.698Z,21.43
2018-12-14T07:26:50.302Z,21.37
2018-12-14T07:28:00.072Z,21.5
2018-12-14T07:29:10.035Z,21.61
2018-12-14T07:30:19.815Z,21.64
2018-12-14T07:31:28.787Z,21.72
2018-12-14T07:32:40.546Z,21.79
2018-12-14T07:33:50.004Z,21.84
2018-12-14T07:34:59.096Z,21.9
2018-12-14T07:36:08.825Z,21.92
2018-12-14T07:37:18.720Z,21.94
2018-12-14T07:38:28.472Z,22
2018-12-14T07:39:37.722Z,22.02
2018-12-14T07:40:46.838Z,21.99
2018-12-14T07:41:56.194Z,21.88
2018-12-14T07:43:05.674Z,22.02
2018-12-14T07:44:15.624Z,21.96
2018-12-14T07:45:25.637Z,21.99
2018-12-14T07:46:35.000Z,22.02
2018-12-14T07:47:44.539Z,21.94
2018-12-14T07:48:54.059Z,22
2018-12-14T07:50:03.934Z,22.07
2018-12-14T07:51:13.323Z,21.98
2018-12-14T07:52:23.045Z,21.99
2018-12-14T07:53:32.971Z,22
2018-12-14T07:54:43.169Z,22
2018-12-14T07:55:52.854Z,22
2018-12-14T07:57:02.406Z,22.12
2018-12-14T07:58:11.616Z,22
2018-12-14T07:59:21.020Z,21.99
2018-12-14T08:00:30.188Z,22.02
2018-12-14T08:01:39.657Z,22.02
2018-12-14T08:02:48.691Z,22
2018-12-14T08:03:58.739Z,22.02
2018-12-14T08:05:08.095Z,22.02
2018-12-14T08:06:18.011Z,21.99
2018-12-14T08:07:27.465Z,22
2018-12-14T08:08:36.888Z,22.05
2018-12-14T08:09:46.453Z,21.99
2018-12-14T08:10:56.155Z,21.98
2018-12-14T08:12:05.319Z,21.98
2018-12-14T08:13:15.183Z,21.98
2018-12-14T08:14:24.515Z,21.96
2018-12-14T08:15:33.557Z,21.98
2018-12-14T08:16:42.857Z,22
2018-12-14T08:17:51.957Z,22.02
2018-12-14T08:19:01.645Z,21.99
2018-12-14T08:20:17.019Z,22.02
2018-12-14T08:21:26.543Z,22.02
2018-12-14T08:22:35.839Z,22
2018-12-14T08:23:45.795Z,21.98
2018-12-14T08:24:55.208Z,21.99
2018-12-14T08:26:04.732Z,21.86
2018-12-14T08:27:14.475Z,21.88
2018-12-14T08:28:24.099Z,21.9
2018-12-14T08:29:33.542Z,21.91
2018-12-14T08:30:42.860Z,21.94
2018-12-14T08:31:52.838Z,21.91
2018-12-14T08:33:02.918Z,21.92
2018-12-14T08:34:12.429Z,21.77
2018-12-14T08:35:21.691Z,21.8
2018-12-14T08:36:31.122Z,21.92
2018-12-14T08:37:40.038Z,21.84
2018-12-14T08:38:49.780Z,21.84
2018-12-14T08:39:59.132Z,21.77
2018-12-14T08:41:09.019Z,21.75
2018-12-14T08:42:17.938Z,21.74
2018-12-14T08:43:27.623Z,21.71
2018-12-14T08:44:37.630Z,21.75
2018-12-14T08:45:47.065Z,21.74
2018-12-14T08:46:56.134Z,21.74
2018-12-14T08:48:05.771Z,21.68
2018-12-14T08:49:15.032Z,21.68
2018-12-14T08:50:24.165Z,21.68
2018-12-14T08:51:33.630Z,21.64
2018-12-14T08:52:43.146Z,21.64
2018-12-14T08:53:52.496Z,21.64
2018-12-14T08:55:01.865Z,21.69
2018-12-14T08:56:11.453Z,21.64
2018-12-14T08:57:20.932Z,21.65
2018-12-14T08:58:30.374Z,21.62
2018-12-14T08:59:40.258Z,21.61
2018-12-14T09:00:50.162Z,21.64
2018-12-14T09:01:59.782Z,21.61
2018-12-14T09:03:08.608Z,21.68
2018-12-14T09:04:19.648Z,21.59
2018-12-14T09:05:29.076Z,21.67
2018-12-14T09:06:38.577Z,21.59
2018-12-14T09:07:48.056Z,21.54
2018-12-14T09:08:57.493Z,21.56
2018-12-14T09:10:07.436Z,21.59
2018-12-14T09:11:16.911Z,21.62
2018-12-14T09:12:26.065Z,21.58
2018-12-14T09:13:35.679Z,21.61
2018-12-14T09:14:45.294Z,21.61
2018-12-14T09:15:54.865Z,21.64
2018-12-14T09:17:04.013Z,21.71
2018-12-14T09:18:13.138Z,21.72
2018-12-14T09:19:22.076Z,21.79
2018-12-14T09:20:31.392Z,21.72
2018-12-14T09:21:41.059Z,21.84
2018-12-14T09:22:50.784Z,21.86
2018-12-14T09:24:00.327Z,21.86
2018-12-14T09:25:09.752Z,21.86
2018-12-14T09:26:19.903Z,21.88
2018-12-14T09:27:29.225Z,22
2018-12-14T09:28:38.724Z,21.94
2018-12-14T09:29:47.726Z,21.94
2018-12-14T09:30:57.120Z,21.99
2018-12-14T09:32:06.728Z,22.02
2018-12-14T09:33:16.188Z,22.02
2018-12-14T09:34:25.731Z,22.14
2018-12-14T09:35:35.412Z,22.06
2018-12-14T09:36:45.350Z,22.09
2018-12-14T09:37:54.792Z,22.09
2018-12-14T09:39:04.413Z,22.2
2018-12-14T09:40:13.483Z,22.22
2018-12-14T09:41:22.983Z,22.1
2018-12-14T09:42:32.485Z,22.14
2018-12-14T09:43:41.707Z,22.21
2018-12-14T09:44:51.093Z,22.2
2018-12-14T09:46:00.381Z,22.14
2018-12-14T09:47:10.091Z,22.14
2018-12-14T09:48:20.124Z,22.17
2018-12-14T09:49:29.901Z,22.18
2018-12-14T09:50:39.599Z,22.1
2018-12-14T09:51:49.296Z,22.21
2018-12-14T09:52:58.482Z,22.12
2018-12-14T09:54:07.600Z,22.09
2018-12-14T09:55:17.239Z,22.03
2018-12-14T09:56:26.666Z,22.07
2018-12-14T09:57:36.000Z,22.09
2018-12-14T09:58:45.667Z,22.07
2018-12-14T09:59:55.292Z,22.09
2018-12-14T10:01:05.065Z,22.1
2018-12-14T10:02:14.027Z,22.09
2018-12-14T10:03:23.945Z,22.06
2018-12-14T10:04:32.801Z,21.96
2018-12-14T10:05:42.402Z,22
2018-12-14T10:06:51.934Z,21.92
2018-12-14T10:08:01.836Z,21.99
2018-12-14T10:09:11.472Z,21.98
2018-12-14T10:10:20.923Z,21.91
2018-12-14T10:11:30.559Z,21.98
2018-12-14T10:12:39.958Z,21.98
2018-12-14T10:13:48.798Z,21.98
2018-12-14T10:14:57.988Z,21.86
2018-12-14T10:16:07.449Z,21.92
2018-12-14T10:17:17.076Z,21.9
2018-12-14T10:18:26.503Z,21.9
2018-12-14T10:19:36.144Z,21.98
2018-12-14T10:20:45.700Z,21.84
2018-12-14T10:21:55.626Z,21.86
2018-12-14T10:23:04.824Z,21.9
2018-12-14T10:24:14.508Z,21.9
2018-12-14T10:25:23.865Z,21.86
2018-12-14T10:26:33.527Z,21.92
2018-12-14T10:27:43.014Z,21.79
2018-12-14T10:28:51.973Z,21.77
2018-12-14T10:30:01.354Z,21.88
2018-12-14T10:31:10.432Z,21.9
2018-12-14T10:32:19.771Z,21.84
2018-12-14T10:33:29.301Z,21.79
2018-12-14T10:34:39.209Z,21.84
2018-12-14T10:35:48.623Z,21.82
2018-12-14T10:36:58.073Z,21.77
2018-12-14T10:38:07.221Z,21.83
2018-12-14T10:39:17.133Z,21.79
2018-12-14T10:40:26.804Z,21.82
2018-12-14T10:41:36.452Z,21.8
2018-12-14T10:42:45.287Z,21.8
2018-12-14T10:43:54.584Z,21.79
2018-12-14T10:45:04.375Z,21.79
2018-12-14T10:46:13.741Z,21.75
2018-12-14T10:47:23.486Z,21.72
2018-12-14T10:48:33.126Z,21.72
2018-12-14T10:49:42.802Z,21.79
2018-12-14T10:50:51.937Z,21.69
2018-12-14T10:52:01.022Z,21.69
2018-12-14T10:53:10.667Z,21.75
2018-12-14T10:54:20.335Z,21.75
2018-12-14T10:55:30.191Z,21.74
2018-12-14T10:56:38.970Z,21.72
2018-12-14T10:57:48.037Z,21.69
2018-12-14T10:58:57.611Z,21.83
2018-12-14T11:00:07.305Z,21.75
2018-12-14T11:01:19.429Z,21.75
2018-12-14T11:02:28.837Z,21.75
2018-12-14T11:03:38.184Z,21.92
2018-12-14T11:04:47.570Z,21.86
2018-12-14T11:05:56.890Z,21.88
2018-12-14T11:07:06.203Z,21.88
2018-12-14T11:08:15.341Z,22.03
2018-12-14T11:09:24.979Z,22
2018-12-14T11:10:34.089Z,22.03
2018-12-14T11:11:43.509Z,22
2018-12-14T11:12:53.759Z,22.03
2018-12-14T11:14:02.895Z,22.18
2018-12-14T11:15:19.306Z,22.24
2018-12-14T11:16:28.447Z,22.22
2018-12-14T11:17:37.771Z,22.2
2018-12-14T11:18:47.161Z,22.22
2018-12-14T11:19:56.434Z,22.21
2018-12-14T11:21:05.293Z,22.2
2018-12-14T11:22:14.405Z,22.2
2018-12-14T11:23:23.790Z,22.25
2018-12-14T11:24:33.895Z,22.2
2018-12-14T11:25:43.514Z,22.24
2018-12-14T11:26:53.596Z,22.24
2018-12-14T11:28:02.780Z,22.18
2018-12-14T11:29:12.062Z,22.25
2018-12-14T11:30:21.980Z,22.31
2018-12-14T11:31:31.114Z,22.27
2018-12-14T11:32:40.689Z,22.21
2018-12-14T11:33:50.758Z,22.21
2018-12-14T11:34:59.916Z,22.25
2018-12-14T11:36:08.905Z,22.22
2018-12-14T11:37:18.500Z,22.21
2018-12-14T11:38:28.092Z,22.21
2018-12-14T11:39:37.189Z,22.22
2018-12-14T11:40:46.909Z,22.18
2018-12-14T11:41:55.986Z,22.2
2018-12-14T11:43:06.146Z,22.15
2018-12-14T11:44:20.376Z,22.22
2018-12-14T11:45:30.387Z,22.22
2018-12-14T11:46:39.757Z,22.14
2018-12-14T11:47:49.378Z,22.15
2018-12-14T11:48:58.714Z,22.17
2018-12-14T11:50:08.406Z,22.1
2018-12-14T11:51:17.463Z,22.09
2018-12-14T11:52:27.316Z,22.03
2018-12-14T11:53:36.415Z,22.09
2018-12-14T11:54:45.775Z,22.06
2018-12-14T11:55:54.877Z,22.09
2018-12-14T11:57:04.568Z,21.98
2018-12-14T11:58:14.172Z,21.99
2018-12-14T11:59:23.038Z,21.99
2018-12-14T12:00:32.692Z,22
2018-12-14T12:01:42.221Z,21.94
2018-12-14T12:02:51.320Z,21.99
2018-12-14T12:04:00.992Z,22
2018-12-14T12:05:10.445Z,21.91
2018-12-14T12:06:19.746Z,22
2018-12-14T12:07:29.658Z,22.02
2018-12-14T12:08:39.214Z,21.9
2018-12-14T12:09:49.123Z,21.86
2018-12-14T12:10:58.767Z,21.9
2018-12-14T12:12:08.156Z,21.91
2018-12-14T12:13:17.740Z,21.99
2018-12-14T12:14:31.691Z,21.86
2018-12-14T12:15:41.001Z,22
2018-12-14T12:16:50.262Z,21.96
2018-12-14T12:18:00.309Z,21.9
2018-12-14T12:19:09.952Z,21.92
2018-12-14T12:20:19.987Z,21.92
2018-12-14T12:21:29.457Z,22
2018-12-14T12:22:38.981Z,21.86
2018-12-14T12:23:48.184Z,21.88
2018-12-14T12:25:02.285Z,21.92
2018-12-14T12:26:11.729Z,21.9
2018-12-14T12:27:21.226Z,21.82
2018-12-14T12:28:30.935Z,21.91
2018-12-14T12:29:40.527Z,21.88
2018-12-14T12:30:50.625Z,21.9
2018-12-14T12:32:00.069Z,21.86
2018-12-14T12:33:10.041Z,21.86
2018-12-14T12:34:19.233Z,21.86
2018-12-14T12:35:28.628Z,21.88
2018-12-14T12:36:37.609Z,21.91
2018-12-14T12:37:46.931Z,21.82
2018-12-14T12:38:55.740Z,21.9
2018-12-14T12:40:05.190Z,21.77
2018-12-14T12:41:15.628Z,21.75
2018-12-14T12:42:25.300Z,21.86
2018-12-14T12:43:34.226Z,21.84
2018-12-14T12:44:43.704Z,21.79
2018-12-14T12:45:53.649Z,21.8
2018-12-14T12:47:02.563Z,21.82
2018-12-14T12:48:12.186Z,21.8
2018-12-14T12:49:21.943Z,21.71
2018-12-14T12:50:32.500Z,21.74
2018-12-14T12:51:42.084Z,21.72
2018-12-14T12:52:51.351Z,21.71
2018-12-14T12:54:00.795Z,21.71
2018-12-14T12:55:09.984Z,21.72
2018-12-14T12:56:19.253Z,21.74
2018-12-14T12:57:28.681Z,21.71
2018-12-14T12:58:37.829Z,21.74
2018-12-14T12:59:47.510Z,21.72
2018-12-14T13:00:57.129Z,21.79
2018-12-14T13:02:06.757Z,21.77
2018-12-14T13:03:16.070Z,21.86
2018-12-14T13:04:25.536Z,21.86
2018-12-14T13:05:39.385Z,21.88
2018-12-14T13:06:48.880Z,21.86
2018-12-14T13:07:58.047Z,21.9
2018-12-14T13:09:07.165Z,22
2018-12-14T13:10:16.860Z,22.06
2018-12-14T13:11:27.330Z,22.07
2018-12-14T13:12:37.141Z,22.2
2018-12-14T13:13:47.325Z,22.18
2018-12-14T13:14:56.917Z,22.21
2018-12-14T13:16:06.459Z,22.15
2018-12-14T13:17:16.262Z,22.22
2018-12-14T13:18:25.419Z,22.28
2018-12-14T13:19:35.722Z,22.27
2018-12-14T13:20:45.282Z,22.27
2018-12-14T13:21:54.537Z,22.3
2018-12-14T13:23:04.760Z,22.33
2018-12-14T13:24:13.979Z,22.37
2018-12-14T13:25:23.300Z,22.36
2018-12-14T13:26:33.759Z,22.36
2018-12-14T13:27:43.223Z,22.36
2018-12-14T13:28:54.048Z,22.4
2018-12-14T13:30:04.035Z,22.4
2018-12-14T13:31:13.346Z,22.39
2018-12-14T13:32:22.851Z,22.39
2018-12-14T13:33:32.674Z,22.39
2018-12-14T13:34:42.765Z,22.39
2018-12-14T13:35:51.906Z,22.35
2018-12-14T13:37:01.003Z,22.39
2018-12-14T13:38:10.699Z,22.33
2018-12-14T13:39:22.741Z,22.33
2018-12-14T13:40:32.315Z,22.27
2018-12-14T13:41:42.203Z,22.3
2018-12-14T13:42:52.073Z,22.31
2018-12-14T13:44:01.652Z,22.27
2018-12-14T13:45:10.787Z,22.25
2018-12-14T13:46:20.391Z,22.33
2018-12-14T13:47:30.271Z,22.3
2018-12-14T13:48:39.671Z,22.27
2018-12-14T13:49:48.831Z,22.28
2018-12-14T13:50:57.743Z,22.24
2018-12-14T13:52:07.652Z,22.22
2018-12-14T13:53:17.071Z,22.17
2018-12-14T13:54:26.324Z,22.22
2018-12-14T13:55:35.360Z,22.2
2018-12-14T13:56:44.388Z,22.22
2018-12-14T13:57:54.064Z,22.22
2018-12-14T13:59:03.376Z,22.18
2018-12-14T14:00:12.596Z,22.17
2018-12-14T14:01:22.273Z,22.25
2018-12-14T14:02:31.744Z,22.18
2018-12-14T14:03:41.358Z,22.17
2018-12-14T14:04:50.565Z,22.05
2018-12-14T14:06:00.456Z,22.07
2018-12-14T14:07:09.781Z,22.06
2018-12-14T14:08:18.648Z,22.14
2018-12-14T14:09:28.386Z,22.06
2018-12-14T14:10:37.141Z,22.1
2018-12-14T14:11:46.609Z,21.99
2018-12-14T14:12:56.355Z,22.05
2018-12-14T14:14:05.859Z,22.05
2018-12-14T14:15:20.632Z,22
2018-12-14T14:16:30.297Z,22.05
2018-12-14T14:17:39.563Z,21.98
2018-12-14T14:18:49.031Z,21.99
2018-12-14T14:19:58.348Z,21.98
2018-12-14T14:21:07.688Z,21.96
2018-12-14T14:22:17.764Z,22
2018-12-14T14:23:27.091Z,21.96
2018-12-14T14:24:36.468Z,21.96
2018-12-14T14:25:46.053Z,22.02
2018-12-14T14:26:55.091Z,22.02
2018-12-14T14:28:04.496Z,21.96
2018-12-14T14:29:15.559Z,22.02
2018-12-14T14:30:24.884Z,21.88
2018-12-14T14:31:34.272Z,22
2018-12-14T14:32:43.642Z,21.84
2018-12-14T14:33:53.364Z,21.99
2018-12-14T14:35:03.066Z,21.98
2018-12-14T14:36:12.655Z,21.98
2018-12-14T14:37:22.139Z,21.88
2018-12-14T14:38:31.358Z,21.92
2018-12-14T14:39:40.882Z,21.94
2018-12-14T14:40:50.111Z,21.94
2018-12-14T14:41:59.585Z,21.91
2018-12-14T14:43:08.801Z,21.84
2018-12-14T14:44:18.289Z,21.96
2018-12-14T14:45:28.489Z,21.88
2018-12-14T14:46:38.085Z,21.9
2018-12-14T14:47:47.802Z,21.8
2018-12-14T14:48:57.217Z,21.91
2018-12-14T14:50:06.726Z,21.9
2018-12-14T14:51:16.374Z,21.88
2018-12-14T14:52:26.269Z,21.9
2018-12-14T14:53:35.638Z,21.83
2018-12-14T14:54:45.289Z,21.75
2018-12-14T14:55:54.671Z,21.9
2018-12-14T14:57:03.777Z,21.88
2018-12-14T14:58:13.682Z,21.9
2018-12-14T14:59:23.704Z,21.86
2018-12-14T15:00:33.493Z,21.92
2018-12-14T15:01:43.491Z,21.92